createdAt,value
2016-09-30T00:00:05.076Z,1007.43
2016-09-30T00:01:05.100Z,1007.4
2016-09-30T00:02:05.128Z,1007.47
2016-09-30T00:03:05.153Z,1007.51
2016-09-30T00:04:05.276Z,1007.51
2016-09-30T00:05:05.200Z,1007.52
2016-09-30T00:06:05.228Z,1007.55
2016-09-30T00:07:05.253Z,1007.47
2016-09-30T00:08:05.276Z,1007.43
2016-09-30T00:09:05.303Z,1007.53
2016-09-30T00:10:05.529Z,1007.51
2016-09-30T00:11:05.354Z,1007.59
2016-09-30T00:12:05.379Z,1007.56
2016-09-30T00:13:05.400Z,1007.52
2016-09-30T00:14:05.427Z,1007.52
2016-09-30T00:15:05.455Z,1007.58
2016-09-30T00:16:05.477Z,1007.55
2016-09-30T00:18:05.526Z,1007.68
2016-09-30T00:19:05.552Z,1007.58
2016-09-30T00:20:05.576Z,1007.56
2016-09-30T00:21:05.601Z,1007.58
2016-09-30T00:22:05.626Z,1007.65
2016-09-30T00:23:05.901Z,1007.62
2016-09-30T00:24:05.678Z,1007.67
2016-09-30T00:25:05.703Z,1007.66
2016-09-30T00:26:05.728Z,1007.66
2016-09-30T00:27:05.751Z,1007.63
2016-09-30T00:28:05.776Z,1007.57
2016-09-30T00:29:05.801Z,1007.53
2016-09-30T00:30:05.828Z,1007.59
2016-09-30T00:31:05.852Z,1007.6
2016-09-30T00:32:05.877Z,1007.6
2016-09-30T00:34:05.927Z,1007.6
2016-09-30T00:35:05.951Z,1007.61
2016-09-30T00:36:05.977Z,1007.64
2016-09-30T00:37:06.002Z,1007.6
2016-09-30T00:38:06.026Z,1007.61
2016-09-30T00:39:06.049Z,1007.6
2016-09-30T00:40:06.074Z,1007.59
2016-09-30T00:41:06.102Z,1007.54
2016-09-30T00:42:06.126Z,1007.55
2016-09-30T00:43:06.151Z,1007.55
2016-09-30T00:44:06.174Z,1007.51
2016-09-30T00:45:06.200Z,1007.57
2016-09-30T00:46:06.223Z,1007.51
2016-09-30T00:47:06.250Z,1007.5
2016-09-30T00:48:06.272Z,1007.48
2016-09-30T00:50:06.322Z,1007.47
2016-09-30T00:51:06.350Z,1007.45
2016-09-30T00:52:06.373Z,1007.45
2016-09-30T00:53:06.397Z,1007.46
2016-09-30T00:54:06.424Z,1007.46
2016-09-30T00:55:06.446Z,1007.53
2016-09-30T00:56:06.474Z,1007.53
2016-09-30T00:57:06.500Z,1007.44
2016-09-30T00:58:06.521Z,1007.47
2016-09-30T00:59:06.546Z,1007.44
2016-09-30T01:00:06.569Z,1007.45
2016-09-30T01:01:06.595Z,1007.41
2016-09-30T01:02:06.622Z,1007.36
2016-09-30T01:03:06.647Z,1007.37
2016-09-30T01:04:06.671Z,1007.35
2016-09-30T01:06:06.719Z,1007.34
2016-09-30T01:07:06.744Z,1007.22
2016-09-30T01:08:06.768Z,1007.26
2016-09-30T01:09:06.795Z,1007.29
2016-09-30T01:10:06.818Z,1007.35
2016-09-30T01:11:06.843Z,1007.43
2016-09-30T01:12:06.868Z,1007.43
2016-09-30T01:13:06.893Z,1007.46
2016-09-30T01:14:06.918Z,1007.46
2016-09-30T01:15:06.943Z,1007.45
2016-09-30T01:16:06.968Z,1007.45
2016-09-30T01:17:06.993Z,1007.41
2016-09-30T01:18:07.024Z,1007.42
2016-09-30T01:19:07.041Z,1007.39
2016-09-30T01:21:07.093Z,1007.37
2016-09-30T01:22:07.117Z,1007.38
2016-09-30T01:23:07.140Z,1007.43
2016-09-30T01:24:07.167Z,1007.35
2016-09-30T01:25:07.193Z,1007.32
2016-09-30T01:26:07.466Z,1007.35
2016-09-30T01:27:07.244Z,1007.39
2016-09-30T01:28:07.266Z,1007.34
2016-09-30T01:29:07.290Z,1007.28
2016-09-30T01:30:07.316Z,1007.27
2016-09-30T01:31:07.339Z,1007.29
2016-09-30T01:32:07.365Z,1007.28
2016-09-30T01:33:07.391Z,1007.28
2016-09-30T01:34:07.413Z,1007.28
2016-09-30T01:35:07.437Z,1007.34
2016-09-30T01:36:07.465Z,1007.34
2016-09-30T01:37:07.489Z,1007.34
2016-09-30T01:38:07.514Z,1007.26
2016-09-30T01:39:07.539Z,1007.22
2016-09-30T01:40:07.561Z,1007.23
2016-09-30T01:41:07.586Z,1007.2
2016-09-30T01:42:07.613Z,1007.19
2016-09-30T01:43:07.637Z,1007.22
2016-09-30T01:44:07.662Z,1007.19
2016-09-30T01:45:07.688Z,1007.2
2016-09-30T01:46:07.712Z,1007.19
2016-09-30T01:47:07.735Z,1007.14
2016-09-30T01:48:07.760Z,1007.15
2016-09-30T01:49:07.786Z,1007.22
2016-09-30T01:50:07.810Z,1007.23
2016-09-30T01:51:07.834Z,1007.24
2016-09-30T01:53:07.884Z,1007.19
2016-09-30T01:54:07.909Z,1007.22
2016-09-30T01:55:07.936Z,1007.24
2016-09-30T01:56:07.960Z,1007.22
2016-09-30T01:57:07.983Z,1007.31
2016-09-30T01:58:08.009Z,1007.25
2016-09-30T01:59:08.035Z,1007.27
2016-09-30T02:00:08.058Z,1007.22
2016-09-30T02:01:08.083Z,1007.22
2016-09-30T02:02:08.109Z,1007.21
2016-09-30T02:03:08.132Z,1007.2
2016-09-30T02:04:08.160Z,1007.26
2016-09-30T02:05:08.184Z,1007.27
2016-09-30T02:06:08.206Z,1007.22
2016-09-30T02:07:08.232Z,1007.22
2016-09-30T02:09:08.332Z,1007.24
2016-09-30T02:10:08.306Z,1007.21
2016-09-30T02:11:08.333Z,1007.21
2016-09-30T02:12:08.357Z,1007.21
2016-09-30T02:13:08.382Z,1007.18
2016-09-30T02:14:08.404Z,1007.14
2016-09-30T02:15:08.430Z,1007.1
2016-09-30T02:16:08.457Z,1007.09
2016-09-30T02:17:08.481Z,1007.11
2016-09-30T02:18:08.504Z,1007.08
2016-09-30T02:19:08.529Z,1007.09
2016-09-30T02:20:08.554Z,1007.14
2016-09-30T02:21:08.580Z,1007.12
2016-09-30T02:22:08.603Z,1007.18
2016-09-30T02:23:08.630Z,1007.18
2016-09-30T02:25:08.680Z,1007.13
2016-09-30T02:26:08.702Z,1007.14
2016-09-30T02:27:08.727Z,1007.1
2016-09-30T02:28:08.754Z,1007.13
2016-09-30T02:29:08.778Z,1007.15
2016-09-30T02:30:08.801Z,1007.16
2016-09-30T02:31:08.827Z,1007.16
2016-09-30T02:32:08.851Z,1007.17
2016-09-30T02:33:09.176Z,1007.19
2016-09-30T02:34:08.901Z,1007.2
2016-09-30T02:35:08.925Z,1007.16
2016-09-30T02:36:08.952Z,1007.21
2016-09-30T02:37:08.977Z,1007.23
2016-09-30T02:38:09.052Z,1007.29
2016-09-30T02:39:09.026Z,1007.31
2016-09-30T02:41:09.076Z,1007.29
2016-09-30T02:42:09.101Z,1007.25
2016-09-30T02:43:09.124Z,1007.26
2016-09-30T02:44:09.150Z,1007.26
2016-09-30T02:45:09.174Z,1007.25
2016-09-30T02:46:09.200Z,1007.29
2016-09-30T02:47:09.223Z,1007.21
2016-09-30T02:48:09.250Z,1007.17
2016-09-30T02:49:09.272Z,1007.21
2016-09-30T02:50:09.297Z,1007.23
2016-09-30T02:51:09.322Z,1007.19
2016-09-30T02:52:09.347Z,1007.17
2016-09-30T02:53:09.372Z,1007.16
2016-09-30T02:54:09.398Z,1007.17
2016-09-30T02:56:09.448Z,1007.17
2016-09-30T02:57:09.471Z,1007.17
2016-09-30T02:58:09.496Z,1007.16
2016-09-30T02:59:09.521Z,1007.15
2016-09-30T03:00:09.548Z,1007.17
2016-09-30T03:01:09.571Z,1007.14
2016-09-30T03:02:09.595Z,1007.14
2016-09-30T03:03:09.620Z,1007.16
2016-09-30T03:04:09.644Z,1007.13
2016-09-30T03:05:09.669Z,1007.13
2016-09-30T03:06:09.693Z,1007.16
2016-09-30T03:07:09.719Z,1007.19
2016-09-30T03:08:09.744Z,1007.15
2016-09-30T03:09:09.769Z,1007.12
2016-09-30T03:10:09.796Z,1007.16
2016-09-30T03:11:09.821Z,1007.17
2016-09-30T03:12:09.844Z,1007.2
2016-09-30T03:13:09.867Z,1007.27
2016-09-30T03:14:09.893Z,1007.32
2016-09-30T03:15:09.917Z,1007.29
2016-09-30T03:16:09.945Z,1007.3
2016-09-30T03:17:09.968Z,1007.24
2016-09-30T03:18:09.992Z,1007.24
2016-09-30T03:19:10.016Z,1007.22
2016-09-30T03:20:10.043Z,1007.2
2016-09-30T03:21:10.067Z,1007.22
2016-09-30T03:22:10.091Z,1007.24
2016-09-30T03:23:10.116Z,1007.25
2016-09-30T03:24:10.391Z,1007.23
2016-09-30T03:25:10.166Z,1007.31
2016-09-30T03:26:10.192Z,1007.3
2016-09-30T03:28:10.243Z,1007.28
2016-09-30T03:29:10.265Z,1007.38
2016-09-30T03:30:10.289Z,1007.41
2016-09-30T03:31:10.314Z,1007.34
2016-09-30T03:32:10.341Z,1007.33
2016-09-30T03:33:10.364Z,1007.28
2016-09-30T03:34:10.388Z,1007.28
2016-09-30T03:35:10.415Z,1007.33
2016-09-30T03:36:10.438Z,1007.27
2016-09-30T03:37:10.462Z,1007.37
2016-09-30T03:38:10.487Z,1007.32
2016-09-30T03:39:10.513Z,1007.34
2016-09-30T03:40:10.539Z,1007.37
2016-09-30T03:41:10.563Z,1007.36
2016-09-30T03:42:10.585Z,1007.37
2016-09-30T03:44:10.636Z,1007.36
2016-09-30T03:45:10.662Z,1007.33
2016-09-30T03:46:10.686Z,1007.32
2016-09-30T03:47:10.709Z,1007.32
2016-09-30T03:48:10.734Z,1007.33
2016-09-30T03:49:10.760Z,1007.37
2016-09-30T03:50:10.783Z,1007.35
2016-09-30T03:51:10.811Z,1007.41
2016-09-30T03:52:10.832Z,1007.39
2016-09-30T03:53:10.858Z,1007.38
2016-09-30T03:54:10.884Z,1007.39
2016-09-30T03:55:10.907Z,1007.37
2016-09-30T03:56:10.932Z,1007.41
2016-09-30T03:57:10.957Z,1007.43
2016-09-30T03:58:10.982Z,1007.42
2016-09-30T04:00:11.030Z,1007.4
2016-09-30T04:01:11.058Z,1007.41
2016-09-30T04:02:11.081Z,1007.38
2016-09-30T04:03:11.107Z,1007.36
2016-09-30T04:04:11.130Z,1007.36
2016-09-30T04:05:11.156Z,1007.37
2016-09-30T04:06:11.182Z,1007.4
2016-09-30T04:07:11.206Z,1007.45
2016-09-30T04:08:11.231Z,1007.46
2016-09-30T04:09:11.256Z,1007.47
2016-09-30T04:10:11.278Z,1007.46
2016-09-30T04:11:11.304Z,1007.46
2016-09-30T04:12:11.330Z,1007.48
2016-09-30T04:13:11.353Z,1007.54
2016-09-30T04:14:11.378Z,1007.57
2016-09-30T04:16:11.428Z,1007.56
2016-09-30T04:17:11.455Z,1007.55
2016-09-30T04:18:11.476Z,1007.52
2016-09-30T04:19:11.502Z,1007.49
2016-09-30T04:20:11.528Z,1007.58
2016-09-30T04:21:11.550Z,1007.58
2016-09-30T04:22:11.578Z,1007.57
2016-09-30T04:23:11.603Z,1007.62
2016-09-30T04:24:11.626Z,1007.63
2016-09-30T04:25:11.650Z,1007.63
2016-09-30T04:26:11.677Z,1007.61
2016-09-30T04:27:11.700Z,1007.57
2016-09-30T04:28:11.727Z,1007.51
2016-09-30T04:29:11.752Z,1007.53
2016-09-30T04:31:11.852Z,1007.55
2016-09-30T04:32:11.824Z,1007.57
2016-09-30T04:33:11.851Z,1007.54
2016-09-30T04:34:11.874Z,1007.57
2016-09-30T04:35:11.900Z,1007.55
2016-09-30T04:36:11.922Z,1007.53
2016-09-30T04:37:11.950Z,1007.51
2016-09-30T04:38:11.976Z,1007.55
2016-09-30T04:39:11.999Z,1007.51
2016-09-30T04:40:12.023Z,1007.56
2016-09-30T04:41:12.047Z,1007.59
2016-09-30T04:42:12.073Z,1007.6
2016-09-30T04:43:12.110Z,1007.64
2016-09-30T04:44:12.122Z,1007.65
2016-09-30T04:45:12.152Z,1007.65
2016-09-30T04:46:12.171Z,1007.64
2016-09-30T04:47:12.197Z,1007.63
2016-09-30T04:48:12.220Z,1007.66
2016-09-30T04:49:12.247Z,1007.68
2016-09-30T04:50:12.271Z,1007.69
2016-09-30T04:51:12.295Z,1007.72
2016-09-30T04:52:12.376Z,1007.76
2016-09-30T04:53:12.346Z,1007.77
2016-09-30T04:54:12.670Z,1007.74
2016-09-30T04:55:12.393Z,1007.72
2016-09-30T04:56:12.418Z,1007.75
2016-09-30T04:57:12.443Z,1007.79
2016-09-30T04:58:12.467Z,1007.81
2016-09-30T04:59:12.495Z,1007.89
2016-09-30T05:00:12.516Z,1007.92
2016-09-30T05:01:12.541Z,1007.87
2016-09-30T05:03:12.591Z,1007.91
2016-09-30T05:04:12.617Z,1007.8
2016-09-30T05:05:12.642Z,1007.78
2016-09-30T05:06:12.666Z,1007.81
2016-09-30T05:07:12.692Z,1007.77
2016-09-30T05:08:12.719Z,1007.8
2016-09-30T05:09:12.741Z,1007.76
2016-09-30T05:10:12.765Z,1007.76
2016-09-30T05:11:12.789Z,1007.82
2016-09-30T05:12:12.813Z,1007.87
2016-09-30T05:13:12.838Z,1007.9
2016-09-30T05:14:12.863Z,1007.91
2016-09-30T05:15:12.889Z,1007.91
2016-09-30T05:16:12.913Z,1008.02
2016-09-30T05:17:12.938Z,1008.04
2016-09-30T05:19:12.989Z,1007.98
2016-09-30T05:20:13.263Z,1007.96
2016-09-30T05:21:13.036Z,1007.97
2016-09-30T05:22:13.063Z,1008.03
2016-09-30T05:23:13.085Z,1008.05
2016-09-30T05:24:13.113Z,1008.04
2016-09-30T05:25:13.135Z,1008.03
2016-09-30T05:26:13.162Z,1008.07
2016-09-30T05:27:13.189Z,1008.07
2016-09-30T05:28:13.211Z,1008.03
2016-09-30T05:29:13.237Z,1008.04
2016-09-30T05:30:13.263Z,1008.08
2016-09-30T05:31:13.283Z,1008.17
2016-09-30T05:32:13.310Z,1008.22
2016-09-30T05:33:13.334Z,1008.23
2016-09-30T05:35:13.382Z,1008.3
2016-09-30T05:36:13.410Z,1008.27
2016-09-30T05:37:13.485Z,1008.26
2016-09-30T05:38:13.459Z,1008.29
2016-09-30T05:39:13.483Z,1008.28
2016-09-30T05:40:13.509Z,1008.28
2016-09-30T05:41:13.532Z,1008.28
2016-09-30T05:42:13.555Z,1008.25
2016-09-30T05:43:13.581Z,1008.22
2016-09-30T05:44:13.606Z,1008.21
2016-09-30T05:45:13.633Z,1008.15
2016-09-30T05:46:13.657Z,1008.16
2016-09-30T05:47:13.679Z,1008.18
2016-09-30T05:48:13.705Z,1008.18
2016-09-30T05:49:13.728Z,1008.21
2016-09-30T05:51:13.779Z,1008.2
2016-09-30T05:52:13.808Z,1008.15
2016-09-30T05:53:13.828Z,1008.15
2016-09-30T05:54:13.855Z,1008.11
2016-09-30T05:55:13.879Z,1008.12
2016-09-30T05:56:13.902Z,1008.11
2016-09-30T05:57:13.926Z,1008.12
2016-09-30T05:58:13.954Z,1008.13
2016-09-30T05:59:14.227Z,1008.19
2016-09-30T06:00:14.001Z,1008.22
2016-09-30T06:01:14.028Z,1008.24
2016-09-30T06:02:14.051Z,1008.23
2016-09-30T06:03:14.075Z,1008.23
2016-09-30T06:04:14.100Z,1008.23
2016-09-30T06:06:14.150Z,1008.19
2016-09-30T06:07:14.229Z,1008.18
2016-09-30T06:08:14.201Z,1008.18
2016-09-30T06:09:14.525Z,1008.21
2016-09-30T06:10:14.249Z,1008.18
2016-09-30T06:11:14.274Z,1008.2
2016-09-30T06:12:14.298Z,1008.19
2016-09-30T06:13:14.326Z,1008.13
2016-09-30T06:14:14.350Z,1008.18
2016-09-30T06:15:14.372Z,1008.21
2016-09-30T06:16:14.397Z,1008.27
2016-09-30T06:17:14.424Z,1008.28
2016-09-30T06:18:14.449Z,1008.29
2016-09-30T06:19:14.477Z,1008.27
2016-09-30T06:20:14.496Z,1008.31
2016-09-30T06:21:14.524Z,1008.38
2016-09-30T06:22:14.549Z,1008.33
2016-09-30T06:23:14.570Z,1008.34
2016-09-30T06:24:14.597Z,1008.32
2016-09-30T06:25:14.620Z,1008.33
2016-09-30T06:26:14.645Z,1008.33
2016-09-30T06:27:14.670Z,1008.3
2016-09-30T06:28:14.696Z,1008.29
2016-09-30T06:29:14.719Z,1008.31
2016-09-30T06:30:14.746Z,1008.29
2016-09-30T06:31:14.768Z,1008.26
2016-09-30T06:32:14.795Z,1008.27
2016-09-30T06:33:14.820Z,1008.27
2016-09-30T06:34:14.847Z,1008.31
2016-09-30T06:35:14.869Z,1008.32
2016-09-30T06:36:14.895Z,1008.34
2016-09-30T06:38:14.945Z,1008.25
2016-09-30T06:39:14.967Z,1008.32
2016-09-30T06:40:14.996Z,1008.4
2016-09-30T06:41:15.017Z,1008.4
2016-09-30T06:42:15.043Z,1008.38
2016-09-30T06:43:15.069Z,1008.41
2016-09-30T06:44:15.093Z,1008.43
2016-09-30T06:45:15.118Z,1008.45
2016-09-30T06:46:15.144Z,1008.39
2016-09-30T06:47:15.165Z,1008.45
2016-09-30T06:48:15.193Z,1008.42
2016-09-30T06:49:15.218Z,1008.4
2016-09-30T06:50:15.241Z,1008.36
2016-09-30T06:51:15.266Z,1008.39
2016-09-30T06:52:15.292Z,1008.37
2016-09-30T06:54:15.341Z,1008.3
2016-09-30T06:55:15.364Z,1008.3
2016-09-30T06:56:15.392Z,1008.36
2016-09-30T06:57:15.416Z,1008.34
2016-09-30T06:58:15.445Z,1008.36
2016-09-30T06:59:15.464Z,1008.41
2016-09-30T07:00:15.792Z,1008.46
2016-09-30T07:01:15.717Z,1008.46
2016-09-30T07:02:15.538Z,1008.41
2016-09-30T07:03:15.564Z,1008.41
2016-09-30T07:04:15.591Z,1008.38
2016-09-30T07:05:15.616Z,1008.34
2016-09-30T07:06:15.640Z,1008.37
2016-09-30T07:07:15.663Z,1008.32
2016-09-30T07:08:15.689Z,1008.39
2016-09-30T07:10:15.754Z,1008.45
2016-09-30T07:11:15.765Z,1008.53
2016-09-30T07:12:15.788Z,1008.52
2016-09-30T07:13:15.812Z,1008.58
2016-09-30T07:14:15.837Z,1008.53
2016-09-30T07:15:15.864Z,1008.52
2016-09-30T07:16:15.888Z,1008.56
2016-09-30T07:17:15.912Z,1008.57
2016-09-30T07:18:15.936Z,1008.6
2016-09-30T07:19:15.964Z,1008.53
2016-09-30T07:20:15.988Z,1008.57
2016-09-30T07:21:16.015Z,1008.61
2016-09-30T07:22:16.036Z,1008.61
2016-09-30T07:23:16.064Z,1008.62
2016-09-30T07:24:16.086Z,1008.64
2016-09-30T07:26:16.139Z,1008.64
2016-09-30T07:27:16.163Z,1008.72
2016-09-30T07:28:16.187Z,1008.7
2016-09-30T07:29:16.213Z,1008.7
2016-09-30T07:30:16.238Z,1008.71
2016-09-30T07:31:16.261Z,1008.8
2016-09-30T07:32:16.285Z,1008.79
2016-09-30T07:33:16.310Z,1008.85
2016-09-30T07:34:16.338Z,1008.88
2016-09-30T07:35:16.360Z,1008.88
2016-09-30T07:36:16.385Z,1008.91
2016-09-30T07:37:16.413Z,1008.9
2016-09-30T07:38:16.436Z,1008.93
2016-09-30T07:39:16.462Z,1008.94
2016-09-30T07:41:16.511Z,1008.9
2016-09-30T07:42:16.543Z,1008.94
2016-09-30T07:43:16.562Z,1008.96
2016-09-30T07:44:16.589Z,1008.97
2016-09-30T07:45:16.612Z,1008.95
2016-09-30T07:46:16.635Z,1009.01
2016-09-30T07:47:16.662Z,1009
2016-09-30T07:48:16.689Z,1009.04
2016-09-30T07:49:16.711Z,1009.08
2016-09-30T07:50:16.741Z,1009.1
2016-09-30T07:51:16.764Z,1009.1
2016-09-30T07:52:16.789Z,1009.13
2016-09-30T07:53:16.811Z,1009.15
2016-09-30T07:54:16.838Z,1009.13
2016-09-30T07:55:16.861Z,1009.14
2016-09-30T07:56:16.892Z,1009.14
2016-09-30T07:57:16.913Z,1009.2
2016-09-30T07:58:16.940Z,1009.23
2016-09-30T07:59:16.962Z,1009.23
2016-09-30T08:00:16.987Z,1009.25
2016-09-30T08:01:17.014Z,1009.24
2016-09-30T08:02:17.040Z,1009.2
2016-09-30T08:03:17.063Z,1009.22
2016-09-30T08:04:17.089Z,1009.23
2016-09-30T08:05:17.113Z,1009.25
2016-09-30T08:06:17.141Z,1009.27
2016-09-30T08:07:17.165Z,1009.24
2016-09-30T08:08:17.190Z,1009.26
2016-09-30T08:09:17.214Z,1009.21
2016-09-30T08:10:17.240Z,1009.24
2016-09-30T08:11:17.265Z,1009.21
2016-09-30T08:13:17.313Z,1009.16
2016-09-30T08:14:17.341Z,1009.1
2016-09-30T08:15:17.363Z,1008.98
2016-09-30T08:16:17.391Z,1008.96
2016-09-30T08:17:17.413Z,1008.98
2016-09-30T08:18:17.441Z,1009.01
2016-09-30T08:19:17.464Z,1009.05
2016-09-30T08:20:17.489Z,1009.12
2016-09-30T08:21:17.517Z,1009.05
2016-09-30T08:22:17.541Z,1009.09
2016-09-30T08:23:17.564Z,1009.09
2016-09-30T08:24:17.593Z,1009.06
2016-09-30T08:25:17.617Z,1009.06
2016-09-30T08:26:17.641Z,1009.02
2016-09-30T08:27:17.665Z,1009.02
2016-09-30T08:29:17.718Z,1009
2016-09-30T08:30:17.742Z,1009.01
2016-09-30T08:31:17.765Z,1008.99
2016-09-30T08:32:17.792Z,1009.02
2016-09-30T08:33:17.815Z,1009.06
2016-09-30T08:34:17.843Z,1009.05
2016-09-30T08:35:17.867Z,1009
2016-09-30T08:36:17.892Z,1009.05
2016-09-30T08:37:17.917Z,1009.07
2016-09-30T08:38:17.943Z,1009.03
2016-09-30T08:39:17.970Z,1009.08
2016-09-30T08:40:17.995Z,1009.04
2016-09-30T08:41:18.020Z,1009.07
2016-09-30T08:42:18.047Z,1009.01
2016-09-30T08:43:18.072Z,1009.08
2016-09-30T08:45:18.128Z,1009.1
2016-09-30T08:46:18.148Z,1009.09
2016-09-30T08:47:18.175Z,1009.11
2016-09-30T08:48:18.198Z,1009.1
2016-09-30T08:49:18.225Z,1009.18
2016-09-30T08:50:18.250Z,1009.17
2016-09-30T08:51:18.275Z,1009.15
2016-09-30T08:52:18.302Z,1009.17
2016-09-30T08:53:18.326Z,1009.22
2016-09-30T08:54:18.353Z,1009.24
2016-09-30T08:55:18.378Z,1009.21
2016-09-30T08:56:18.403Z,1009.18
2016-09-30T08:57:18.432Z,1009.11
2016-09-30T08:58:18.458Z,1009.09
2016-09-30T08:59:18.483Z,1009.06
2016-09-30T09:01:18.535Z,1008.97
2016-09-30T09:02:18.560Z,1008.97
2016-09-30T09:03:18.587Z,1008.99
2016-09-30T09:04:18.612Z,1009.01
2016-09-30T09:05:18.640Z,1009.01
2016-09-30T09:06:18.663Z,1009.04
2016-09-30T09:07:18.691Z,1009
2016-09-30T09:08:18.716Z,1009
2016-09-30T09:09:18.742Z,1008.98
2016-09-30T09:10:18.770Z,1009.05
2016-09-30T09:11:18.795Z,1009.05
2016-09-30T09:12:18.822Z,1009
2016-09-30T09:13:18.849Z,1009.07
2016-09-30T09:14:18.876Z,1009.08
2016-09-30T09:16:18.932Z,1009.11
2016-09-30T09:17:18.958Z,1009.16
2016-09-30T09:18:18.985Z,1009.16
2016-09-30T09:19:19.012Z,1009.17
2016-09-30T09:20:19.040Z,1009.14
2016-09-30T09:21:19.064Z,1009.17
2016-09-30T09:22:19.093Z,1009.13
2016-09-30T09:23:19.122Z,1009.13
2016-09-30T09:24:19.149Z,1009.07
2016-09-30T09:25:19.174Z,1009.07
2016-09-30T09:26:19.204Z,1009.03
2016-09-30T09:27:19.231Z,1009.03
2016-09-30T09:28:19.257Z,1009
2016-09-30T09:29:19.390Z,1009.09
2016-09-30T09:30:19.312Z,1009.12
2016-09-30T09:31:19.344Z,1009.09
2016-09-30T09:32:19.368Z,1009.07
2016-09-30T09:33:19.397Z,1009.06
2016-09-30T09:34:19.429Z,1009.04
2016-09-30T09:35:19.452Z,1009.06
2016-09-30T09:36:19.482Z,1009.02
2016-09-30T09:37:19.510Z,1009
2016-09-30T09:38:19.537Z,1008.98
2016-09-30T09:39:19.564Z,1008.96
2016-09-30T09:40:19.594Z,1008.99
2016-09-30T09:41:19.622Z,1009
2016-09-30T09:42:19.649Z,1008.95
2016-09-30T09:43:19.675Z,1009.01
2016-09-30T09:44:19.706Z,1009.03
2016-09-30T09:45:19.733Z,1009.02
2016-09-30T09:46:19.762Z,1008.96
2016-09-30T09:48:19.817Z,1009.03
2016-09-30T09:49:19.846Z,1009.02
2016-09-30T09:50:19.870Z,1009.06
2016-09-30T09:51:19.899Z,1009.06
2016-09-30T09:52:19.928Z,1009.08
2016-09-30T09:53:19.954Z,1009.06
2016-09-30T09:54:19.984Z,1009.08
2016-09-30T09:55:20.009Z,1009.12
2016-09-30T09:56:20.039Z,1009.05
2016-09-30T09:57:20.063Z,1009.12
2016-09-30T09:58:20.092Z,1009.07
2016-09-30T09:59:20.122Z,1009.07
2016-09-30T10:00:20.147Z,1009.06
2016-09-30T10:01:20.176Z,1009.07
2016-09-30T10:02:20.204Z,1009.05
2016-09-30T10:04:20.260Z,1009.03
2016-09-30T10:05:20.285Z,1009
2016-09-30T10:06:20.315Z,1008.97
2016-09-30T10:07:20.340Z,1009.06
2016-09-30T10:08:20.368Z,1009.01
2016-09-30T10:09:20.395Z,1009.1
2016-09-30T10:10:20.423Z,1009.09
2016-09-30T10:11:20.452Z,1009.08
2016-09-30T10:12:20.478Z,1009.06
2016-09-30T10:13:20.510Z,1009.09
2016-09-30T10:14:20.535Z,1009.11
2016-09-30T10:15:20.559Z,1009.06
2016-09-30T10:16:20.588Z,1009.06
2016-09-30T10:17:20.616Z,1009.08
2016-09-30T10:18:20.643Z,1009.04
2016-09-30T10:20:20.697Z,1009.09
2016-09-30T10:21:20.728Z,1009.07
2016-09-30T10:22:20.753Z,1009.08
2016-09-30T10:23:20.777Z,1009.09
2016-09-30T10:24:20.807Z,1009.1
2016-09-30T10:25:20.834Z,1009.07
2016-09-30T10:26:20.862Z,1009.01
2016-09-30T10:27:20.889Z,1009.01
2016-09-30T10:28:20.917Z,1008.99
2016-09-30T10:29:20.943Z,1009.01
2016-09-30T10:30:20.970Z,1008.95
2016-09-30T10:31:20.996Z,1008.95
2016-09-30T10:32:21.024Z,1008.95
2016-09-30T10:33:21.051Z,1008.93
2016-09-30T10:34:21.080Z,1008.95
2016-09-30T10:36:21.134Z,1008.99
2016-09-30T10:37:21.160Z,1009.05
2016-09-30T10:38:21.189Z,1009.01
2016-09-30T10:39:21.215Z,1008.99
2016-09-30T10:40:21.244Z,1008.96
2016-09-30T10:41:21.269Z,1008.98
2016-09-30T10:42:21.298Z,1009.02
2016-09-30T10:43:21.323Z,1009.02
2016-09-30T10:44:21.351Z,1009.04
2016-09-30T10:45:21.378Z,1009.04
2016-09-30T10:46:21.404Z,1008.96
2016-09-30T10:47:21.434Z,1008.98
2016-09-30T10:48:21.459Z,1008.96
2016-09-30T10:49:21.486Z,1008.99
2016-09-30T10:51:21.541Z,1008.97
2016-09-30T10:52:21.567Z,1008.92
2016-09-30T10:53:21.594Z,1008.9
2016-09-30T10:54:21.622Z,1008.85
2016-09-30T10:55:21.649Z,1008.9
2016-09-30T10:56:21.675Z,1008.89
2016-09-30T10:57:21.704Z,1008.9
2016-09-30T10:58:21.729Z,1008.88
2016-09-30T10:59:21.758Z,1008.9
2016-09-30T11:00:21.784Z,1008.9
2016-09-30T11:01:21.810Z,1008.88
2016-09-30T11:02:21.837Z,1008.88
2016-09-30T11:03:21.864Z,1008.88
2016-09-30T11:04:21.893Z,1008.89
2016-09-30T11:05:21.920Z,1008.83
2016-09-30T11:06:21.946Z,1008.89
2016-09-30T11:07:21.972Z,1008.85
2016-09-30T11:08:21.999Z,1008.82
2016-09-30T11:09:22.028Z,1008.82
2016-09-30T11:10:22.054Z,1008.85
2016-09-30T11:11:22.081Z,1008.8
2016-09-30T11:12:22.106Z,1008.79
2016-09-30T11:13:22.136Z,1008.8
2016-09-30T11:14:22.159Z,1008.79
2016-09-30T11:15:22.187Z,1008.79
2016-09-30T11:16:22.214Z,1008.77
2016-09-30T11:17:22.241Z,1008.78
2016-09-30T11:18:22.267Z,1008.79
2016-09-30T11:19:22.295Z,1008.8
2016-09-30T11:20:22.573Z,1008.75
2016-09-30T11:21:22.349Z,1008.75
2016-09-30T11:23:22.401Z,1008.7
2016-09-30T11:24:22.429Z,1008.71
2016-09-30T11:25:22.456Z,1008.7
2016-09-30T11:26:22.484Z,1008.68
2016-09-30T11:27:22.510Z,1008.71
2016-09-30T11:28:22.537Z,1008.7
2016-09-30T11:29:22.560Z,1008.67
2016-09-30T11:30:22.588Z,1008.65
2016-09-30T11:31:22.617Z,1008.64
2016-09-30T11:32:22.643Z,1008.65
2016-09-30T11:33:22.670Z,1008.64
2016-09-30T11:34:22.697Z,1008.64
2016-09-30T11:35:22.722Z,1008.67
2016-09-30T11:36:22.749Z,1008.64
2016-09-30T11:37:22.775Z,1008.64
2016-09-30T11:39:22.829Z,1008.63
2016-09-30T11:40:22.858Z,1008.59
2016-09-30T11:41:22.884Z,1008.59
2016-09-30T11:42:22.909Z,1008.57
2016-09-30T11:43:22.938Z,1008.54
2016-09-30T11:44:22.965Z,1008.63
2016-09-30T11:45:22.990Z,1008.58
2016-09-30T11:46:23.019Z,1008.53
2016-09-30T11:47:23.043Z,1008.52
2016-09-30T11:48:23.071Z,1008.47
2016-09-30T11:49:23.101Z,1008.48
2016-09-30T11:50:23.125Z,1008.47
2016-09-30T11:51:23.152Z,1008.47
2016-09-30T11:52:23.180Z,1008.42
2016-09-30T11:53:23.207Z,1008.39
2016-09-30T11:55:23.260Z,1008.4
2016-09-30T11:56:23.287Z,1008.43
2016-09-30T11:57:23.314Z,1008.42
2016-09-30T11:58:23.340Z,1008.44
2016-09-30T11:59:23.368Z,1008.36
2016-09-30T12:00:23.395Z,1008.38
2016-09-30T12:01:23.423Z,1008.35
2016-09-30T12:02:23.452Z,1008.46
2016-09-30T12:03:23.479Z,1008.4
2016-09-30T12:04:23.504Z,1008.38
2016-09-30T12:05:23.533Z,1008.39
2016-09-30T12:06:23.560Z,1008.37
2016-09-30T12:07:23.593Z,1008.4
2016-09-30T12:08:23.615Z,1008.41
2016-09-30T12:09:23.642Z,1008.38
2016-09-30T12:11:23.694Z,1008.38
2016-09-30T12:12:23.723Z,1008.38
2016-09-30T12:13:23.751Z,1008.39
2016-09-30T12:14:23.778Z,1008.37
2016-09-30T12:15:23.807Z,1008.42
2016-09-30T12:16:23.832Z,1008.44
2016-09-30T12:17:23.859Z,1008.47
2016-09-30T12:18:23.887Z,1008.45
2016-09-30T12:19:23.915Z,1008.39
2016-09-30T12:20:23.943Z,1008.34
2016-09-30T12:21:23.969Z,1008.41
2016-09-30T12:22:23.998Z,1008.39
2016-09-30T12:23:24.027Z,1008.41
2016-09-30T12:24:24.052Z,1008.36
2016-09-30T12:26:24.108Z,1008.37
2016-09-30T12:27:24.135Z,1008.35
2016-09-30T12:28:24.165Z,1008.38
2016-09-30T12:29:24.190Z,1008.3
2016-09-30T12:30:24.219Z,1008.27
2016-09-30T12:31:24.245Z,1008.24
2016-09-30T12:32:24.273Z,1008.24
2016-09-30T12:33:24.303Z,1008.25
2016-09-30T12:34:24.330Z,1008.3
2016-09-30T12:35:24.355Z,1008.32
2016-09-30T12:36:24.426Z,1008.24
2016-09-30T12:37:24.413Z,1008.26
2016-09-30T12:38:24.438Z,1008.24
2016-09-30T12:39:24.466Z,1008.27
2016-09-30T12:40:24.496Z,1008.19
2016-09-30T12:41:24.524Z,1008.16
2016-09-30T12:42:24.548Z,1008.19
2016-09-30T12:43:24.576Z,1008.17
2016-09-30T12:44:24.605Z,1008.09
2016-09-30T12:45:24.633Z,1008.09
2016-09-30T12:46:24.662Z,1008.12
2016-09-30T12:47:24.689Z,1008.16
2016-09-30T12:48:24.715Z,1008.07